sensor_id;sensor_type;location;lat;lon;timestamp;pressure;altitude;pressure_sealevel;temperature;humidity
11041;BME280;5573;49.592;8.662;2023-02-21T00:01:26;100376.19;;;6.63;100.00
11041;BME280;5573;49.592;8.662;2023-02-21T00:04:12;100363.91;;;6.69;100.00
11041;BME280;5573;49.592;8.662;2023-02-21T00:06:58;100370.38;;;6.52;100.00
11041;BME280;5573;49.592;8.662;2023-02-21T00:09:44;100371.94;;;6.41;100.00
11041;BME280;5573;49.592;8.662;2023-02-21T00:12:29;100365.13;;;6.35;100.00
11041;BME280;5573;49.592;8.662;2023-02-21T00:15:14;100361.47;;;6.30;100.00
11041;BME280;5573;49.592;8.662;2023-02-21T00:18:00;100356.03;;;6.30;100.00
11041;BME280;5573;49.592;8.662;2023-02-21T00:20:45;100353.72;;;6.20;100.00
11041;BME280;5573;49.592;8.662;2023-02-21T00:23:33;100347.00;;;6.30;100.00
11041;BME280;5573;49.592;8.662;2023-02-21T00:26:19;100351.94;;;6.61;100.00
11041;BME280;5573;49.592;8.662;2023-02-21T00:29:05;100355.69;;;6.69;100.00
11041;BME280;5573;49.592;8.662;2023-02-21T00:31:51;100353.19;;;6.51;100.00
11041;BME280;5573;49.592;8.662;2023-02-21T00:34:36;100359.31;;;6.48;100.00
11041;BME280;5573;49.592;8.662;2023-02-21T00:37:21;100359.09;;;6.41;100.00
11041;BME280;5573;49.592;8.662;2023-02-21T00:40:10;100349.28;;;6.28;100.00
11041;BME280;5573;49.592;8.662;2023-02-21T00:42:56;100347.81;;;6.30;100.00
11041;BME280;5573;49.592;8.662;2023-02-21T00:45:41;100343.59;;;6.21;100.00
11041;BME280;5573;49.592;8.662;2023-02-21T00:48:27;100341.88;;;6.16;100.00
11041;BME280;5573;49.592;8.662;2023-02-21T00:51:13;100335.13;;;6.01;100.00
11041;BME280;5573;49.592;8.662;2023-02-21T00:53:58;100341.41;;;6.14;100.00
11041;BME280;5573;49.592;8.662;2023-02-21T00:56:45;100339.81;;;6.13;100.00
11041;BME280;5573;49.592;8.662;2023-02-21T00:59:30;100334.47;;;6.17;100.00
11041;BME280;5573;49.592;8.662;2023-02-21T01:02:16;100332.88;;;6.16;100.00
11041;BME280;5573;49.592;8.662;2023-02-21T01:05:02;100342.09;;;6.23;100.00
11041;BME280;5573;49.592;8.662;2023-02-21T01:07:47;100336.41;;;6.16;100.00
11041;BME280;5573;49.592;8.662;2023-02-21T01:10:33;100339.13;;;6.16;100.00
11041;BME280;5573;49.592;8.662;2023-02-21T01:13:20;100335.75;;;6.31;100.00
11041;BME280;5573;49.592;8.662;2023-02-21T01:16:06;100327.97;;;6.21;100.00
11041;BME280;5573;49.592;8.662;2023-02-21T01:18:51;100337.34;;;6.20;100.00
11041;BME280;5573;49.592;8.662;2023-02-21T01:21:37;100340.72;;;6.17;100.00
11041;BME280;5573;49.592;8.662;2023-02-21T01:24:22;100347.06;;;6.09;100.00
11041;BME280;5573;49.592;8.662;2023-02-21T01:27:08;100358.47;;;5.99;100.00
11041;BME280;5573;49.592;8.662;2023-02-21T01:29:55;100353.66;;;5.96;100.00
11041;BME280;5573;49.592;8.662;2023-02-21T01:32:40;100350.91;;;5.96;100.00
11041;BME280;5573;49.592;8.662;2023-02-21T01:35:25;100343.88;;;5.95;100.00
11041;BME280;5573;49.592;8.662;2023-02-21T01:38:10;100347.25;;;5.91;100.00
11041;BME280;5573;49.592;8.662;2023-02-21T01:40:55;100340.84;;;5.87;100.00
11041;BME280;5573;49.592;8.662;2023-02-21T01:43:56;100316.00;;;5.68;100.00
11041;BME280;5573;49.592;8.662;2023-02-21T01:46:43;100343.25;;;5.89;100.00
11041;BME280;5573;49.592;8.662;2023-02-21T01:49:29;100341.25;;;5.98;100.00
11041;BME280;5573;49.592;8.662;2023-02-21T01:52:16;100334.22;;;5.97;100.00
11041;BME280;5573;49.592;8.662;2023-02-21T01:55:02;100331.16;;;5.99;100.00
11041;BME280;5573;49.592;8.662;2023-02-21T01:57:49;100328.19;;;6.04;100.00
11041;BME280;5573;49.592;8.662;2023-02-21T02:00:36;100325.00;;;6.02;100.00
11041;BME280;5573;49.592;8.662;2023-02-21T02:03:23;100322.50;;;5.97;100.00
11041;BME280;5573;49.592;8.662;2023-02-21T02:06:13;100320.38;;;5.94;100.00
11041;BME280;5573;49.592;8.662;2023-02-21T02:09:12;100319.94;;;5.91;100.00
11041;BME280;5573;49.592;8.662;2023-02-21T02:12:10;100313.72;;;5.70;100.00
11041;BME280;5573;49.592;8.662;2023-02-21T02:15:01;100309.53;;;5.73;100.00
11041;BME280;5573;49.592;8.662;2023-02-21T02:17:39;100300.88;;;5.70;100.00
11041;BME280;5573;49.592;8.662;2023-02-21T02:20:40;100308.28;;;5.70;100.00
11041;BME280;5573;49.592;8.662;2023-02-21T02:23:33;100313.41;;;5.72;100.00
11041;BME280;5573;49.592;8.662;2023-02-21T02:26:25;100316.00;;;5.68;100.00
11041;BME280;5573;49.592;8.662;2023-02-21T02:29:13;100309.03;;;5.58;100.00
11041;BME280;5573;49.592;8.662;2023-02-21T02:32:03;100310.72;;;5.50;100.00
11041;BME280;5573;49.592;8.662;2023-02-21T02:34:48;100307.09;;;5.59;100.00
11041;BME280;5573;49.592;8.662;2023-02-21T02:37:22;100301.66;;;5.59;100.00
11041;BME280;5573;49.592;8.662;2023-02-21T02:40:01;100309.94;;;5.62;100.00
11041;BME280;5573;49.592;8.662;2023-02-21T02:42:39;100304.72;;;5.57;100.00
11041;BME280;5573;49.592;8.662;2023-02-21T02:45:14;100311.09;;;5.61;100.00
11041;BME280;5573;49.592;8.662;2023-02-21T02:47:49;100302.16;;;5.52;100.00
11041;BME280;5573;49.592;8.662;2023-02-21T02:50:22;100303.50;;;5.46;100.00
11041;BME280;5573;49.592;8.662;2023-02-21T02:52:53;100298.66;;;5.52;100.00
11041;BME280;5573;49.592;8.662;2023-02-21T02:55:31;100297.25;;;5.45;100.00
11041;BME280;5573;49.592;8.662;2023-02-21T02:58:01;100305.81;;;5.56;100.00
11041;BME280;5573;49.592;8.662;2023-02-21T03:00:32;100301.38;;;5.52;100.00
11041;BME280;5573;49.592;8.662;2023-02-21T03:03:21;100304.66;;;5.45;100.00
11041;BME280;5573;49.592;8.662;2023-02-21T03:06:07;100310.56;;;5.47;100.00
11041;BME280;5573;49.592;8.662;2023-02-21T03:08:43;100310.72;;;5.50;100.00
11041;BME280;5573;49.592;8.662;2023-02-21T03:11:16;100312.44;;;5.55;100.00
11041;BME280;5573;49.592;8.662;2023-02-21T03:13:48;100314.22;;;5.51;100.00
11041;BME280;5573;49.592;8.662;2023-02-21T03:16:23;100317.69;;;5.39;100.00
11041;BME280;5573;49.592;8.662;2023-02-21T03:18:56;100311.69;;;5.46;100.00
11041;BME280;5573;49.592;8.662;2023-02-21T03:21:28;100308.72;;;5.39;100.00
11041;BME280;5573;49.592;8.662;2023-02-21T03:24:01;100307.53;;;5.27;100.00
11041;BME280;5573;49.592;8.662;2023-02-21T03:26:35;100313.47;;;5.29;100.00
11041;BME280;5573;49.592;8.662;2023-02-21T03:29:24;100313.78;;;5.28;100.00
11041;BME280;5573;49.592;8.662;2023-02-21T03:31:55;100318.53;;;5.19;100.00
11041;BME280;5573;49.592;8.662;2023-02-21T03:34:23;100314.00;;;5.23;100.00
11041;BME280;5573;49.592;8.662;2023-02-21T03:36:54;100310.81;;;5.21;100.00
11041;BME280;5573;49.592;8.662;2023-02-21T03:39:22;100312.38;;;5.22;100.00
11041;BME280;5573;49.592;8.662;2023-02-21T03:41:50;100313.66;;;5.24;100.00
11041;BME280;5573;49.592;8.662;2023-02-21T03:44:18;100305.38;;;5.12;100.00
11041;BME280;5573;49.592;8.662;2023-02-21T03:46:50;100309.88;;;5.17;100.00
11041;BME280;5573;49.592;8.662;2023-02-21T03:49:17;100308.66;;;5.05;100.00
11041;BME280;5573;49.592;8.662;2023-02-21T03:51:45;100294.94;;;5.14;100.00
11041;BME280;5573;49.592;8.662;2023-02-21T03:54:15;100286.66;;;5.11;100.00
11041;BME280;5573;49.592;8.662;2023-02-21T03:56:50;100234.63;;;4.74;100.00
11041;BME280;5573;49.592;8.662;2023-02-21T03:59:23;100302.16;;;5.19;100.00
11041;BME280;5573;49.592;8.662;2023-02-21T04:01:51;100308.94;;;5.13;100.00
11041;BME280;5573;49.592;8.662;2023-02-21T04:04:20;100307.88;;;5.05;100.00
11041;BME280;5573;49.592;8.662;2023-02-21T04:06:56;100306.75;;;5.06;100.00
11041;BME280;5573;49.592;8.662;2023-02-21T04:09:25;100309.59;;;5.09;100.00
11041;BME280;5573;49.592;8.662;2023-02-21T04:11:53;100302.47;;;4.96;100.00
11041;BME280;5573;49.592;8.662;2023-02-21T04:14:21;100311.91;;;4.99;100.00
11041;BME280;5573;49.592;8.662;2023-02-21T04:16:49;100306.78;;;4.97;100.00
11041;BME280;5573;49.592;8.662;2023-02-21T04:19:17;100297.56;;;4.89;100.00
11041;BME280;5573;49.592;8.662;2023-02-21T04:21:45;100309.25;;;4.90;100.00
11041;BME280;5573;49.592;8.662;2023-02-21T04:24:14;100276.66;;;4.73;100.00
11041;BME280;5573;49.592;8.662;2023-02-21T04:26:43;100296.09;;;4.92;100.00
11041;BME280;5573;49.592;8.662;2023-02-21T04:29:11;100292.09;;;4.89;100.00
11041;BME280;5573;49.592;8.662;2023-02-21T04:31:39;100292.63;;;4.83;100.00
11041;BME280;5573;49.592;8.662;2023-02-21T04:34:12;100290.56;;;4.80;100.00
11041;BME280;5573;49.592;8.662;2023-02-21T04:36:42;100287.56;;;4.73;100.00
11041;BME280;5573;49.592;8.662;2023-02-21T04:39:09;100279.56;;;4.67;100.00
11041;BME280;5573;49.592;8.662;2023-02-21T04:41:38;100296.31;;;4.78;100.00
11041;BME280;5573;49.592;8.662;2023-02-21T04:44:08;100289.75;;;4.79;100.00
11041;BME280;5573;49.592;8.662;2023-02-21T04:46:36;100285.16;;;4.71;100.00
11041;BME280;5573;49.592;8.662;2023-02-21T04:49:04;100282.91;;;4.73;100.00
11041;BME280;5573;49.592;8.662;2023-02-21T04:51:32;100287.34;;;4.78;100.00
11041;BME280;5573;49.592;8.662;2023-02-21T04:53:59;100289.16;;;4.74;100.00
11041;BME280;5573;49.592;8.662;2023-02-21T04:56:27;100292.66;;;4.74;100.00
11041;BME280;5573;49.592;8.662;2023-02-21T04:58:55;100285.75;;;4.56;100.00
11041;BME280;5573;49.592;8.662;2023-02-21T05:01:26;100284.03;;;4.72;100.00
11041;BME280;5573;49.592;8.662;2023-02-21T05:03:54;100240.13;;;4.44;100.00
11041;BME280;5573;49.592;8.662;2023-02-21T05:06:23;100284.38;;;4.71;100.00
11041;BME280;5573;49.592;8.662;2023-02-21T05:08:51;100283.97;;;4.51;100.00
11041;BME280;5573;49.592;8.662;2023-02-21T05:11:21;100274.22;;;4.50;100.00
11041;BME280;5573;49.592;8.662;2023-02-21T05:13:49;100284.44;;;4.62;100.00
11041;BME280;5573;49.592;8.662;2023-02-21T05:16:17;100264.38;;;4.37;100.00
11041;BME280;5573;49.592;8.662;2023-02-21T05:18:47;100277.63;;;4.38;100.00
11041;BME280;5573;49.592;8.662;2023-02-21T05:21:17;100279.41;;;4.43;100.00
11041;BME280;5573;49.592;8.662;2023-02-21T05:23:46;100277.78;;;4.42;100.00
11041;BME280;5573;49.592;8.662;2023-02-21T05:26:23;100289.06;;;4.32;100.00
11041;BME280;5573;49.592;8.662;2023-02-21T05:28:51;100274.03;;;4.25;100.00
11041;BME280;5573;49.592;8.662;2023-02-21T05:31:20;100288.25;;;4.31;100.00
11041;BME280;5573;49.592;8.662;2023-02-21T05:33:49;100294.50;;;4.32;100.00
11041;BME280;5573;49.592;8.662;2023-02-21T05:36:17;100290.41;;;4.17;100.00
11041;BME280;5573;49.592;8.662;2023-02-21T05:38:45;100287.03;;;4.20;100.00
11041;BME280;5573;49.592;8.662;2023-02-21T05:41:14;100289.81;;;4.11;100.00
11041;BME280;5573;49.592;8.662;2023-02-21T05:43:43;100267.28;;;3.93;100.00
11041;BME280;5573;49.592;8.662;2023-02-21T05:46:17;100288.03;;;4.06;100.00
11041;BME280;5573;49.592;8.662;2023-02-21T05:48:45;100303.41;;;4.11;100.00
11041;BME280;5573;49.592;8.662;2023-02-21T05:51:15;100306.28;;;4.06;100.00
11041;BME280;5573;49.592;8.662;2023-02-21T05:53:43;100298.47;;;3.96;100.00
11041;BME280;5573;49.592;8.662;2023-02-21T05:56:12;100306.47;;;4.01;100.00
11041;BME280;5573;49.592;8.662;2023-02-21T05:58:40;100300.38;;;4.04;100.00
11041;BME280;5573;49.592;8.662;2023-02-21T06:01:07;100297.19;;;4.02;100.00
11041;BME280;5573;49.592;8.662;2023-02-21T06:03:35;100299.44;;;4.00;100.00
11041;BME280;5573;49.592;8.662;2023-02-21T06:06:03;100294.28;;;4.07;100.00
11041;BME280;5573;49.592;8.662;2023-02-21T06:08:41;100292.53;;;4.02;100.00
11041;BME280;5573;49.592;8.662;2023-02-21T06:11:09;100286.47;;;3.97;100.00
11041;BME280;5573;49.592;8.662;2023-02-21T06:13:37;100297.19;;;4.02;100.00
11041;BME280;5573;49.592;8.662;2023-02-21T06:16:05;100293.34;;;4.03;100.00
11041;BME280;5573;49.592;8.662;2023-02-21T06:18:33;100283.41;;;4.07;100.00
11041;BME280;5573;49.592;8.662;2023-02-21T06:21:00;100288.84;;;4.07;100.00
11041;BME280;5573;49.592;8.662;2023-02-21T06:23:28;100293.91;;;4.17;100.00
11041;BME280;5573;49.592;8.662;2023-02-21T06:25:57;100295.09;;;4.07;100.00
11041;BME280;5573;49.592;8.662;2023-02-21T06:28:27;100299.06;;;4.10;100.00
11041;BME280;5573;49.592;8.662;2023-02-21T06:30:54;100299.34;;;4.26;100.00
11041;BME280;5573;49.592;8.662;2023-02-21T06:33:22;100299.47;;;4.30;100.00
11041;BME280;5573;49.592;8.662;2023-02-21T06:35:50;100292.91;;;4.31;100.00
11041;BME280;5573;49.592;8.662;2023-02-21T06:38:18;100291.78;;;4.32;100.00
11041;BME280;5573;49.592;8.662;2023-02-21T06:40:46;100293.19;;;4.38;100.00
11041;BME280;5573;49.592;8.662;2023-02-21T06:43:15;100287.91;;;4.41;100.00
11041;BME280;5573;49.592;8.662;2023-02-21T06:45:43;100295.16;;;4.28;100.00
11041;BME280;5573;49.592;8.662;2023-02-21T06:48:13;100294.19;;;4.33;100.00
11041;BME280;5573;49.592;8.662;2023-02-21T06:50:41;100292.56;;;4.41;100.00
11041;BME280;5573;49.592;8.662;2023-02-21T06:53:09;100302.56;;;4.58;100.00
11041;BME280;5573;49.592;8.662;2023-02-21T06:55:37;100299.88;;;4.49;100.00
11041;BME280;5573;49.592;8.662;2023-02-21T06:58:04;100299.88;;;4.49;100.00
11041;BME280;5573;49.592;8.662;2023-02-21T07:00:33;100300.53;;;4.46;100.00
11041;BME280;5573;49.592;8.662;2023-02-21T07:03:01;100301.50;;;4.41;100.00
11041;BME280;5573;49.592;8.662;2023-02-21T07:05:29;100285.66;;;4.43;100.00
11041;BME280;5573;49.592;8.662;2023-02-21T07:08:00;100302.25;;;4.51;100.00
11041;BME280;5573;49.592;8.662;2023-02-21T07:10:28;100305.41;;;4.61;100.00
11041;BME280;5573;49.592;8.662;2023-02-21T07:12:56;100300.13;;;4.86;100.00
11041;BME280;5573;49.592;8.662;2023-02-21T07:15:24;100298.19;;;4.86;100.00
11041;BME280;5573;49.592;8.662;2023-02-21T07:17:53;100298.66;;;4.88;100.00
11041;BME280;5573;49.592;8.662;2023-02-21T07:20:21;100293.09;;;4.85;100.00
11041;BME280;5573;49.592;8.662;2023-02-21T07:22:49;100273.09;;;4.81;100.00
11041;BME280;5573;49.592;8.662;2023-02-21T07:25:19;100293.84;;;4.94;100.00
11041;BME280;5573;49.592;8.662;2023-02-21T07:27:47;100296.63;;;5.06;100.00
11041;BME280;5573;49.592;8.662;2023-02-21T07:30:16;100291.72;;;5.21;100.00
11041;BME280;5573;49.592;8.662;2023-02-21T07:32:44;100293.50;;;5.38;100.00
11041;BME280;5573;49.592;8.662;2023-02-21T07:35:13;100300.44;;;5.47;100.00
11041;BME280;5573;49.592;8.662;2023-02-21T07:37:41;100302.91;;;5.61;100.00
11041;BME280;5573;49.592;8.662;2023-02-21T07:40:09;100303.75;;;5.74;100.00
11041;BME280;5573;49.592;8.662;2023-02-21T07:42:40;100299.44;;;5.85;100.00
11041;BME280;5573;49.592;8.662;2023-02-21T07:45:10;100301.53;;;6.01;100.00
11041;BME280;5573;49.592;8.662;2023-02-21T07:47:38;100298.16;;;6.16;100.00
11041;BME280;5573;49.592;8.662;2023-02-21T07:50:06;100300.78;;;6.25;100.00
11041;BME280;5573;49.592;8.662;2023-02-21T07:52:35;100300.34;;;6.35;100.00
11041;BME280;5573;49.592;8.662;2023-02-21T07:55:03;100304.53;;;6.45;100.00
11041;BME280;5573;49.592;8.662;2023-02-21T07:57:31;100308.53;;;6.60;100.00
11041;BME280;5573;49.592;8.662;2023-02-21T07:59:59;100300.00;;;6.74;100.00
11041;BME280;5573;49.592;8.662;2023-02-21T08:02:27;100300.88;;;6.90;100.00
11041;BME280;5573;49.592;8.662;2023-02-21T08:04:54;100300.75;;;6.99;100.00
11041;BME280;5573;49.592;8.662;2023-02-21T08:07:22;100298.63;;;7.20;100.00
11041;BME280;5573;49.592;8.662;2023-02-21T08:09:52;100295.44;;;7.18;100.00
11041;BME280;5573;49.592;8.662;2023-02-21T08:12:20;100303.63;;;7.30;100.00
11041;BME280;5573;49.592;8.662;2023-02-21T08:14:47;100303.31;;;7.48;100.00
11041;BME280;5573;49.592;8.662;2023-02-21T08:17:15;100311.88;;;7.74;100.00
11041;BME280;5573;49.592;8.662;2023-02-21T08:19:43;100309.25;;;7.78;100.00
11041;BME280;5573;49.592;8.662;2023-02-21T08:22:10;100310.59;;;8.00;100.00
11041;BME280;5573;49.592;8.662;2023-02-21T08:24:38;100300.00;;;8.30;100.00
11041;BME280;5573;49.592;8.662;2023-02-21T08:27:07;100307.91;;;8.48;100.00
11041;BME280;5573;49.592;8.662;2023-02-21T08:29:35;100308.16;;;8.59;100.00
11041;BME280;5573;49.592;8.662;2023-02-21T08:32:03;100312.28;;;8.68;100.00
11041;BME280;5573;49.592;8.662;2023-02-21T08:34:31;100308.00;;;8.87;100.00
11041;BME280;5573;49.592;8.662;2023-02-21T08:36:59;100306.91;;;9.07;100.00
11041;BME280;5573;49.592;8.662;2023-02-21T08:39:27;100303.84;;;9.12;100.00
11041;BME280;5573;49.592;8.662;2023-02-21T08:41:55;100306.47;;;9.25;100.00
11041;BME280;5573;49.592;8.662;2023-02-21T08:44:24;100307.13;;;9.18;100.00
11041;BME280;5573;49.592;8.662;2023-02-21T08:46:52;100314.56;;;9.18;100.00
11041;BME280;5573;49.592;8.662;2023-02-21T08:49:19;100305.75;;;9.28;100.00
11041;BME280;5573;49.592;8.662;2023-02-21T08:51:47;100306.84;;;9.43;100.00
11041;BME280;5573;49.592;8.662;2023-02-21T08:54:15;100307.19;;;9.61;100.00
11041;BME280;5573;49.592;8.662;2023-02-21T08:56:42;100301.19;;;9.74;100.00
11041;BME280;5573;49.592;8.662;2023-02-21T08:59:10;100303.53;;;9.76;100.00
11041;BME280;5573;49.592;8.662;2023-02-21T09:01:39;100299.22;;;9.75;100.00
11041;BME280;5573;49.592;8.662;2023-02-21T09:04:07;100304.84;;;9.82;100.00
11041;BME280;5573;49.592;8.662;2023-02-21T09:06:35;100301.38;;;9.85;100.00
11041;BME280;5573;49.592;8.662;2023-02-21T09:09:03;100294.72;;;9.86;100.00
11041;BME280;5573;49.592;8.662;2023-02-21T09:11:30;100297.72;;;10.01;100.00
11041;BME280;5573;49.592;8.662;2023-02-21T09:13:58;100296.69;;;10.09;100.00
11041;BME280;5573;49.592;8.662;2023-02-21T09:16:26;100288.97;;;10.18;100.00
11041;BME280;5573;49.592;8.662;2023-02-21T09:18:56;100291.06;;;9.79;100.00
11041;BME280;5573;49.592;8.662;2023-02-21T09:21:24;100298.28;;;10.10;100.00
11041;BME280;5573;49.592;8.662;2023-02-21T09:23:53;100291.19;;;10.09;100.00
11041;BME280;5573;49.592;8.662;2023-02-21T09:26:22;100289.13;;;10.25;100.00
11041;BME280;5573;49.592;8.662;2023-02-21T09:28:50;100285.03;;;10.38;100.00
11041;BME280;5573;49.592;8.662;2023-02-21T09:31:19;100288.84;;;10.57;100.00
11041;BME280;5573;49.592;8.662;2023-02-21T09:33:46;100290.97;;;10.67;100.00
11041;BME280;5573;49.592;8.662;2023-02-21T09:36:16;100284.84;;;10.77;100.00
11041;BME280;5573;49.592;8.662;2023-02-21T09:38:49;100289.00;;;10.94;96.83
11041;BME280;5573;49.592;8.662;2023-02-21T09:41:18;100298.53;;;11.01;97.88
11041;BME280;5573;49.592;8.662;2023-02-21T09:43:48;100280.66;;;11.17;95.54
11041;BME280;5573;49.592;8.662;2023-02-21T09:46:20;100276.00;;;11.22;94.61
11041;BME280;5573;49.592;8.662;2023-02-21T09:48:52;100275.47;;;11.46;100.00
11041;BME280;5573;49.592;8.662;2023-02-21T09:51:21;100272.78;;;11.50;92.67
11041;BME280;5573;49.592;8.662;2023-02-21T09:53:53;100271.72;;;11.62;90.25
11041;BME280;5573;49.592;8.662;2023-02-21T09:56:26;100271.84;;;11.72;92.45
11041;BME280;5573;49.592;8.662;2023-02-21T09:58:55;100268.00;;;11.84;89.88
11041;BME280;5573;49.592;8.662;2023-02-21T10:01:46;100268.53;;;11.93;87.52
11041;BME280;5573;49.592;8.662;2023-02-21T10:04:22;100261.97;;;12.09;88.04
11041;BME280;5573;49.592;8.662;2023-02-21T10:06:58;100261.19;;;12.12;87.50
11041;BME280;5573;49.592;8.662;2023-02-21T10:09:37;100265.13;;;12.11;85.56
11041;BME280;5573;49.592;8.662;2023-02-21T10:12:11;100267.41;;;12.02;87.70
11041;BME280;5573;49.592;8.662;2023-02-21T10:14:59;100267.53;;;12.12;86.78
11041;BME280;5573;49.592;8.662;2023-02-21T10:17:33;100262.78;;;12.13;87.65
11041;BME280;5573;49.592;8.662;2023-02-21T10:20:05;100267.63;;;12.27;87.63
11041;BME280;5573;49.592;8.662;2023-02-21T10:22:42;100266.09;;;12.29;84.37
11041;BME280;5573;49.592;8.662;2023-02-21T10:25:20;100265.38;;;12.43;84.04
11041;BME280;5573;49.592;8.662;2023-02-21T10:27:49;100263.78;;;12.38;83.04
11041;BME280;5573;49.592;8.662;2023-02-21T10:30:25;100264.75;;;12.64;79.61
11041;BME280;5573;49.592;8.662;2023-02-21T10:32:54;100259.50;;;12.45;77.91
11041;BME280;5573;49.592;8.662;2023-02-21T10:35:23;100261.88;;;12.46;81.09
11041;BME280;5573;49.592;8.662;2023-02-21T10:37:55;100237.03;;;12.46;79.07
11041;BME280;5573;49.592;8.662;2023-02-21T10:40:29;100254.06;;;12.63;80.39
11041;BME280;5573;49.592;8.662;2023-02-21T10:43:03;100253.00;;;12.78;80.29
11041;BME280;5573;49.592;8.662;2023-02-21T10:45:34;100253.00;;;12.78;79.54
11041;BME280;5573;49.592;8.662;2023-02-21T10:48:05;100251.88;;;12.90;77.79
11041;BME280;5573;49.592;8.662;2023-02-21T10:50:41;100251.56;;;13.06;77.70
11041;BME280;5573;49.592;8.662;2023-02-21T10:53:24;100253.19;;;13.21;77.91
11041;BME280;5573;49.592;8.662;2023-02-21T10:56:19;100252.56;;;13.49;74.32
11041;BME280;5573;49.592;8.662;2023-02-21T10:58:49;100259.66;;;13.57;74.50
11041;BME280;5573;49.592;8.662;2023-02-21T11:01:20;100259.69;;;13.65;71.92
11041;BME280;5573;49.592;8.662;2023-02-21T11:03:52;100248.59;;;13.57;73.03
11041;BME280;5573;49.592;8.662;2023-02-21T11:06:26;100252.59;;;13.71;71.00
11041;BME280;5573;49.592;8.662;2023-02-21T11:09:00;100249.84;;;13.71;72.40
11041;BME280;5573;49.592;8.662;2023-02-21T11:11:34;100237.97;;;13.74;74.04
11041;BME280;5573;49.592;8.662;2023-02-21T11:14:18;100245.47;;;13.66;72.57
11041;BME280;5573;49.592;8.662;2023-02-21T11:17:05;100242.34;;;13.93;72.55
11041;BME280;5573;49.592;8.662;2023-02-21T11:19:51;100229.69;;;13.88;74.26
11041;BME280;5573;49.592;8.662;2023-02-21T11:22:22;100223.78;;;13.79;72.38
11041;BME280;5573;49.592;8.662;2023-02-21T11:24:56;100197.69;;;13.73;70.51
11041;BME280;5573;49.592;8.662;2023-02-21T11:27:27;100219.44;;;13.96;69.98
11041;BME280;5573;49.592;8.662;2023-02-21T11:29:56;100211.53;;;14.01;69.13
11041;BME280;5573;49.592;8.662;2023-02-21T11:32:30;100213.88;;;14.24;67.75
11041;BME280;5573;49.592;8.662;2023-02-21T11:35:00;100207.97;;;14.26;68.17
11041;BME280;5573;49.592;8.662;2023-02-21T11:37:29;100205.97;;;14.30;66.36
11041;BME280;5573;49.592;8.662;2023-02-21T11:39:59;100214.25;;;14.37;64.31
11041;BME280;5573;49.592;8.662;2023-02-21T11:42:30;100204.38;;;14.58;64.72
11041;BME280;5573;49.592;8.662;2023-02-21T11:45:19;100191.34;;;14.37;66.11
11041;BME280;5573;49.592;8.662;2023-02-21T11:47:55;100195.28;;;14.61;64.63
11041;BME280;5573;49.592;8.662;2023-02-21T11:50:28;100193.69;;;14.60;65.12
11041;BME280;5573;49.592;8.662;2023-02-21T11:53:03;100183.41;;;14.53;64.26
11041;BME280;5573;49.592;8.662;2023-02-21T11:55:34;100176.69;;;14.43;65.17
11041;BME280;5573;49.592;8.662;2023-02-21T11:58:12;100176.28;;;14.52;64.04
11041;BME280;5573;49.592;8.662;2023-02-21T12:00:49;100166.41;;;14.55;64.15
11041;BME280;5573;49.592;8.662;2023-02-21T12:03:40;100160.78;;;14.83;62.93
11041;BME280;5573;49.592;8.662;2023-02-21T12:06:17;100156.06;;;14.80;64.19
11041;BME280;5573;49.592;8.662;2023-02-21T12:08:50;100154.47;;;14.79;64.29
11041;BME280;5573;49.592;8.662;2023-02-21T12:11:33;100152.03;;;14.96;62.64
11041;BME280;5573;49.592;8.662;2023-02-21T12:14:13;100147.16;;;15.18;62.55
11041;BME280;5573;49.592;8.662;2023-02-21T12:16:53;100142.56;;;14.86;63.24
11041;BME280;5573;49.592;8.662;2023-02-21T12:19:36;100137.78;;;14.97;64.65
11041;BME280;5573;49.592;8.662;2023-02-21T12:22:17;100136.50;;;15.09;62.77
11041;BME280;5573;49.592;8.662;2023-02-21T12:24:55;100131.31;;;15.18;61.60
11041;BME280;5573;49.592;8.662;2023-02-21T12:27:33;100132.97;;;15.09;62.09
11041;BME280;5573;49.592;8.662;2023-02-21T12:30:16;100120.63;;;15.20;60.31
11041;BME280;5573;49.592;8.662;2023-02-21T12:32:56;100119.09;;;15.09;61.50
11041;BME280;5573;49.592;8.662;2023-02-21T12:36:00;100107.53;;;15.24;60.66
11041;BME280;5573;49.592;8.662;2023-02-21T12:38:46;100111.19;;;15.07;60.77
11041;BME280;5573;49.592;8.662;2023-02-21T12:41:26;100093.31;;;15.19;60.85
11041;BME280;5573;49.592;8.662;2023-02-21T12:44:03;100092.63;;;15.04;59.98
11041;BME280;5573;49.592;8.662;2023-02-21T12:46:35;100096.84;;;15.23;60.68
11041;BME280;5573;49.592;8.662;2023-02-21T12:49:11;100094.00;;;15.34;60.39
11041;BME280;5573;49.592;8.662;2023-02-21T12:51:44;100084.53;;;15.28;61.26
11041;BME280;5573;49.592;8.662;2023-02-21T12:54:16;100075.47;;;15.23;61.29
11041;BME280;5573;49.592;8.662;2023-02-21T12:56:48;100078.97;;;15.35;61.40
11041;BME280;5573;49.592;8.662;2023-02-21T12:59:23;100078.19;;;15.31;61.76
11041;BME280;5573;49.592;8.662;2023-02-21T13:01:55;100079.69;;;15.42;61.70
11041;BME280;5573;49.592;8.662;2023-02-21T13:04:33;100072.59;;;15.38;60.17
11041;BME280;5573;49.592;8.662;2023-02-21T13:07:09;100071.34;;;15.42;61.41
11041;BME280;5573;49.592;8.662;2023-02-21T13:09:49;100044.66;;;15.18;59.96
11041;BME280;5573;49.592;8.662;2023-02-21T13:12:22;100061.88;;;15.40;60.40
11041;BME280;5573;49.592;8.662;2023-02-21T13:14:56;100069.13;;;15.27;59.78
11041;BME280;5573;49.592;8.662;2023-02-21T13:17:26;100061.56;;;15.31;59.73
11041;BME280;5573;49.592;8.662;2023-02-21T13:19:58;100055.28;;;15.23;60.37
11041;BME280;5573;49.592;8.662;2023-02-21T13:26:22;100049.19;;;15.39;59.36
11041;BME280;5573;49.592;8.662;2023-02-21T13:28:54;100043.22;;;15.48;58.96
11041;BME280;5573;49.592;8.662;2023-02-21T13:31:25;100036.16;;;15.39;59.79
11041;BME280;5573;49.592;8.662;2023-02-21T13:33:55;100042.47;;;15.43;60.03
11041;BME280;5573;49.592;8.662;2023-02-21T13:36:26;100033.38;;;15.39;60.66
11041;BME280;5573;49.592;8.662;2023-02-21T13:38:57;100042.22;;;15.69;59.33
11041;BME280;5573;49.592;8.662;2023-02-21T13:41:28;100033.47;;;15.74;58.57